메인 페이지
METAR-TAF:

METAR-TAF

공항 :

방콕, 타이

돈므앙 국제공항

위도: 13-54-45N, 경도: 100-36-24E, 고도: 4m

현재 날씨관측

예보는 40분 전, 00:30시(UTC)에 발표되었습니다.
남남동3kt동남동풍과 풍을 오가는
온도 27°C
습도 89%
기압 1011 hPa
시정: 6000m
고도 1600ft 상공 구름 조금

METAR: VTBD 180030Z 15003KT 120V190 6000 FEW016 27/25 Q1011 NOSIG

시각: 08:10 (01:10 UTC)

예보

예보는 2 시간 10분 전, 23:00시(UTC)에 발표되었습니다.
예보 대상 시간: 18일 00시부터 19일 06시까지 (UTC)
남남동5kt
시정: 5000m
고도 1200ft 상공 구름 조금
박무
전환 중
18일 02시부터 18일 04시까지 (UTC)
남남서8kt
시정: 8000m
고도 2000ft 상공 구름 조금
전환 중
18일 11시부터 18일 13시까지 (UTC)
시정: 6000m
전환 중
18일 21시부터 18일 23시까지 (UTC)
동남동5kt
시정: 2000m
고도 1000ft 상공 구름 조금
박무
전환 중
19일 01시부터 19일 03시까지 (UTC)
8kt
시정: 7000m
고도 2000ft 상공 구름 조금

TAF: VTBD 172300Z 1800/1906 15005KT 5000 BR FEW012 BECMG 1802/1804 21008KT 8000 NSW FEW020 BECMG 1811/1813 6000 NSC BECMG 1821/1823 12005KT 2000 BR FEW010 BECMG 1901/1903 18008KT 7000 NSW FEW020

4,000개 이상의 공항 관측 자료 및 예보 (METAR 및 TAF 보고).

지도상에서 검색 가능한 기상관측소가 노란 점과 빨간 점으로 표시되어 있습니다.

기상관측소 명을 보려면 표시 위로 마우스를 이동하세요.

날씨 관측과 예보를 보려면 클릭하세요.

지도 변경 : 확대하려면 엑스 표시가 있는 녹색 버튼, 축소하려면 빼기 표시가 있는 녹색 버튼, 다음 페이지의 지도를 보려면 녹색 화살표를 클릭하세요.


METAR-TAF: